Time;durP1;ratioP1;P1;durP2;ratioP2;P2;SDS_P1;SDS_P2;PMS_P1;PMS_P2;Temp;Humidity;BMP_temperature;BMP_pressure;BME280_temperature;BME280_humidity;BME280_pressure;Samples;Min_cycle;Max_cycle;Signal;HPM_P1;HPM_P2
2021/01/02 00:00:04;;;;;;;36.73;18.60;;;;;;;;;;5065490;28;20258;-77
2021/01/02 00:02:44;;;;;;;32.30;17.80;;;;;;;;;;5063354;28;20174;-77
2021/01/02 00:05:13;;;;;;;37.13;18.87;;;;;;;;;;5062268;28;20288;-77
2021/01/02 00:07:47;;;;;;;35.47;19.13;;;;;;;;;;5063861;28;20174;-76
2021/01/02 00:10:14;;;;;;;36.53;18.37;;;;;;;;;;5069324;28;20541;-76
2021/01/02 00:12:58;;;;;;;28.33;18.30;;;;;;;;;;5068158;28;20199;-76
2021/01/02 00:15:30;;;;;;;31.77;17.87;;;;;;;;;;5063473;28;20213;-76
2021/01/02 00:18:05;;;;;;;29.23;17.53;;;;;;;;;;5062435;28;20209;-76
2021/01/02 00:20:45;;;;;;;33.93;19.27;;;;;;;;;;5064666;28;20259;-76
2021/01/02 00:23:18;;;;;;;33.57;19.07;;;;;;;;;;5067436;28;20204;-76
2021/01/02 00:25:45;;;;;;;33.77;19.57;;;;;;;;;;5062606;28;20562;-76
2021/01/02 00:28:21;;;;;;;31.63;17.83;;;;;;;;;;5053239;28;20181;-76
2021/01/02 00:30:52;;;;;;;33.30;17.97;;;;;;;;;;5058665;28;20220;-76
2021/01/02 00:33:19;;;;;;;35.37;19.90;;;;;;;;;;5064701;28;20200;-76
2021/01/02 00:35:46;;;;;;;34.57;18.70;;;;;;;;;;5059786;28;20185;-76
2021/01/02 00:38:13;;;;;;;34.77;18.60;;;;;;;;;;5051510;28;20205;-77
2021/01/02 00:40:38;;;;;;;36.20;19.97;;;;;;;;;;5070051;28;20173;-77
2021/01/02 00:43:06;;;;;;;31.23;19.13;;;;;;;;;;5060240;28;20589;-77
2021/01/02 00:45:32;;;;;;;38.90;20.43;;;;;;;;;;5050849;28;20241;-77
2021/01/02 00:47:57;;;;;;;36.50;20.87;;;;;;;;;;5059022;28;20591;-77
2021/01/02 00:50:24;;;;;;;34.73;19.67;;;;;;;;;;5055764;28;20181;-77
2021/01/02 00:53:13;;;;;;;33.27;20.40;;;;;;;;;;5067634;28;20188;-76
2021/01/02 00:55:38;;;;;;;34.60;19.83;;;;;;;;;;5061531;28;20659;-76
2021/01/02 00:58:06;;;;;;;35.87;19.73;;;;;;;;;;5064214;28;20296;-76
2021/01/02 01:00:35;;;;;;;34.80;18.70;;;;;;;;;;5065956;28;20285;-77
2021/01/02 01:03:00;;;;;;;33.90;19.07;;;;;;;;;;5068361;28;20692;-76
2021/01/02 01:05:29;;;;;;;35.50;17.97;;;;;;;;;;5059339;28;20173;-76
2021/01/02 01:07:54;;;;;;;34.07;19.90;;;;;;;;;;5064342;28;20241;-76
2021/01/02 01:10:21;;;;;;;29.60;19.27;;;;;;;;;;5067653;28;20176;-76
2021/01/02 01:12:46;;;;;;;29.43;17.90;;;;;;;;;;5066994;28;20181;-76
2021/01/02 01:15:12;;;;;;;32.87;18.63;;;;;;;;;;5062814;28;20196;-76
2021/01/02 01:17:56;;;;;;;29.60;17.30;;;;;;;;;;5070152;28;20177;-76
2021/01/02 01:20:21;;;;;;;35.40;19.70;;;;;;;;;;5064010;28;20264;-76
2021/01/02 01:22:55;;;;;;;34.93;19.83;;;;;;;;;;5061110;28;20203;-76
2021/01/02 01:25:49;;;;;;;36.50;19.63;;;;;;;;;;5065329;28;20717;-76
2021/01/02 01:28:17;;;;;;;33.33;20.27;;;;;;;;;;5061049;28;20262;-77
2021/01/02 01:30:43;;;;;;;36.30;18.83;;;;;;;;;;5069727;28;20540;-76
2021/01/02 01:33:12;;;;;;;32.23;19.70;;;;;;;;;;5068784;28;20601;-76
2021/01/02 01:35:41;;;;;;;31.57;19.13;;;;;;;;;;5065266;28;20586;-76
2021/01/02 01:38:10;;;;;;;32.53;19.60;;;;;;;;;;5067809;28;20204;-76
2021/01/02 01:40:38;;;;;;;30.57;17.97;;;;;;;;;;5060461;28;20165;-76
2021/01/02 01:43:04;;;;;;;29.63;17.97;;;;;;;;;;5066927;28;20334;-76
2021/01/02 01:45:38;;;;;;;32.83;19.20;;;;;;;;;;5058089;28;20261;-77
2021/01/02 01:48:04;;;;;;;36.77;20.17;;;;;;;;;;5067907;28;20632;-76
2021/01/02 01:50:56;;;;;;;33.00;18.10;;;;;;;;;;5066456;28;20174;-76
2021/01/02 01:53:40;;;;;;;36.43;19.87;;;;;;;;;;5044528;28;20205;-76
2021/01/02 01:56:14;;;;;;;35.40;19.63;;;;;;;;;;5061902;28;20268;-76
2021/01/02 01:58:42;;;;;;;33.57;19.00;;;;;;;;;;5061243;28;20188;-76
2021/01/02 02:01:08;;;;;;;33.63;21.47;;;;;;;;;;5067332;28;20635;-76
2021/01/02 02:03:35;;;;;;;35.53;21.37;;;;;;;;;;5062487;28;20287;-76
2021/01/02 02:06:01;;;;;;;35.63;21.43;;;;;;;;;;5062362;28;20212;-76
2021/01/02 02:08:40;;;;;;;31.77;20.37;;;;;;;;;;5064076;28;20261;-77
2021/01/02 02:11:05;;;;;;;35.27;20.80;;;;;;;;;;5064548;28;20227;-76
2021/01/02 02:13:32;;;;;;;31.57;20.47;;;;;;;;;;5067585;28;20665;-76
2021/01/02 02:15:58;;;;;;;34.73;20.57;;;;;;;;;;5064532;28;20173;-76
2021/01/02 02:18:25;;;;;;;33.37;20.80;;;;;;;;;;5065617;28;20193;-76
2021/01/02 02:20:58;;;;;;;36.20;20.27;;;;;;;;;;5063879;28;20232;-76
2021/01/02 02:23:26;;;;;;;32.53;19.87;;;;;;;;;;5065914;28;20291;-76
2021/01/02 02:26:02;;;;;;;32.50;20.07;;;;;;;;;;5062274;28;20178;-76
2021/01/02 02:28:36;;;;;;;32.53;19.63;;;;;;;;;;5064011;28;20307;-76
2021/01/02 02:31:05;;;;;;;36.73;21.77;;;;;;;;;;5065054;28;20662;-76
2021/01/02 02:33:31;;;;;;;31.10;20.60;;;;;;;;;;5069729;28;20193;-76
2021/01/02 02:35:57;;;;;;;30.80;19.10;;;;;;;;;;5068470;28;20246;-76
2021/01/02 02:38:22;;;;;;;29.37;19.67;;;;;;;;;;5059675;28;20212;-76
2021/01/02 02:40:47;;;;;;;36.30;21.43;;;;;;;;;;5067709;28;20196;-76
2021/01/02 02:43:14;;;;;;;32.60;19.60;;;;;;;;;;5067998;28;20189;-76
2021/01/02 02:45:39;;;;;;;34.70;21.07;;;;;;;;;;5070166;28;20253;-76
2021/01/02 02:48:09;;;;;;;34.40;21.40;;;;;;;;;;5062944;28;20264;-76
2021/01/02 02:50:35;;;;;;;35.93;20.87;;;;;;;;;;5069666;28;20256;-76
2021/01/02 02:53:04;;;;;;;40.80;22.10;;;;;;;;;;5064228;28;20648;-76
2021/01/02 02:55:29;;;;;;;34.33;21.23;;;;;;;;;;5063172;28;20194;-76
2021/01/02 02:57:55;;;;;;;32.17;19.97;;;;;;;;;;5067063;28;20181;-76
2021/01/02 03:00:20;;;;;;;35.80;21.20;;;;;;;;;;5057060;28;20216;-76
2021/01/02 03:02:46;;;;;;;30.80;20.70;;;;;;;;;;5067921;28;20643;-76
2021/01/02 03:05:11;;;;;;;34.23;21.33;;;;;;;;;;5071318;28;20219;-76
2021/01/02 03:07:49;;;;;;;34.83;22.00;;;;;;;;;;5061766;28;20213;-76
2021/01/02 03:10:15;;;;;;;32.87;22.17;;;;;;;;;;5068772;28;20181;-76
2021/01/02 03:12:42;;;;;;;36.53;21.67;;;;;;;;;;5059322;28;20260;-76
2021/01/02 03:15:08;;;;;;;35.50;22.77;;;;;;;;;;5070107;28;20611;-76
2021/01/02 03:17:33;;;;;;;37.23;23.10;;;;;;;;;;5065631;28;20558;-76
2021/01/02 03:19:58;;;;;;;34.70;22.00;;;;;;;;;;5072372;28;20219;-76
2021/01/02 03:22:23;;;;;;;35.87;21.63;;;;;;;;;;5070746;28;20195;-76
2021/01/02 03:24:48;;;;;;;37.33;22.23;;;;;;;;;;5066052;28;20201;-76
2021/01/02 03:27:14;;;;;;;39.50;24.07;;;;;;;;;;5067665;28;20268;-76
2021/01/02 03:29:39;;;;;;;39.37;23.20;;;;;;;;;;5064053;28;20628;-76
2021/01/02 03:32:04;;;;;;;36.60;23.07;;;;;;;;;;5064426;28;20169;-76
2021/01/02 03:34:29;;;;;;;36.30;23.03;;;;;;;;;;5065246;28;20550;-76
2021/01/02 03:36:54;;;;;;;37.00;21.90;;;;;;;;;;5068952;28;20267;-76
2021/01/02 03:39:20;;;;;;;38.13;23.17;;;;;;;;;;5063961;28;20213;-76
2021/01/02 03:41:45;;;;;;;40.60;22.37;;;;;;;;;;5071071;28;20183;-76
2021/01/02 03:44:10;;;;;;;34.40;21.73;;;;;;;;;;5070808;28;20739;-76
2021/01/02 03:46:35;;;;;;;35.17;22.40;;;;;;;;;;5061095;28;20173;-76
2021/01/02 03:49:00;;;;;;;35.13;22.63;;;;;;;;;;5062445;28;20180;-76
2021/01/02 03:51:26;;;;;;;31.80;22.33;;;;;;;;;;5070206;28;20177;-76
2021/01/02 03:53:52;;;;;;;39.47;22.93;;;;;;;;;;5068888;28;20238;-76
2021/01/02 03:56:17;;;;;;;33.87;22.07;;;;;;;;;;5062032;28;20181;-76
2021/01/02 03:58:42;;;;;;;33.83;21.53;;;;;;;;;;5068107;28;20205;-76
2021/01/02 04:01:07;;;;;;;35.00;21.77;;;;;;;;;;5068135;28;20174;-76
2021/01/02 04:03:32;;;;;;;39.93;24.07;;;;;;;;;;5070400;28;20567;-76
2021/01/02 04:05:58;;;;;;;36.03;23.27;;;;;;;;;;5068994;28;20699;-76
2021/01/02 04:08:23;;;;;;;37.40;22.43;;;;;;;;;;5063921;28;20734;-76
2021/01/02 04:10:48;;;;;;;35.93;22.47;;;;;;;;;;5062371;28;20223;-76
2021/01/02 04:13:13;;;;;;;34.37;21.30;;;;;;;;;;5059456;28;20710;-76
2021/01/02 04:15:38;;;;;;;37.43;22.63;;;;;;;;;;5068728;28;20712;-76
2021/01/02 04:18:04;;;;;;;37.23;23.00;;;;;;;;;;5069680;28;20181;-76
2021/01/02 04:20:29;;;;;;;37.73;22.23;;;;;;;;;;5061790;28;20204;-76
2021/01/02 04:22:55;;;;;;;40.87;23.73;;;;;;;;;;5067373;28;20226;-76
2021/01/02 04:25:20;;;;;;;38.53;23.10;;;;;;;;;;5070933;28;20173;-76
2021/01/02 04:27:45;;;;;;;34.67;22.97;;;;;;;;;;5068773;28;20199;-76
2021/01/02 04:30:10;;;;;;;34.43;22.00;;;;;;;;;;5069041;28;20184;-76
2021/01/02 04:32:35;;;;;;;37.37;22.40;;;;;;;;;;5059427;28;20173;-76
2021/01/02 04:35:01;;;;;;;36.67;23.60;;;;;;;;;;5070412;28;20177;-76
2021/01/02 04:37:27;;;;;;;41.07;24.30;;;;;;;;;;5059788;28;20191;-76
2021/01/02 04:39:53;;;;;;;40.40;23.63;;;;;;;;;;5065063;28;20799;-76
2021/01/02 04:42:19;;;;;;;33.50;22.60;;;;;;;;;;5063735;28;20224;-76
2021/01/02 04:44:44;;;;;;;37.03;23.10;;;;;;;;;;5065685;28;20222;-76
2021/01/02 04:47:10;;;;;;;33.23;23.17;;;;;;;;;;5062282;28;20176;-76
2021/01/02 04:49:35;;;;;;;39.27;22.30;;;;;;;;;;5066413;28;20270;-76
2021/01/02 04:52:01;;;;;;;34.47;22.00;;;;;;;;;;5065761;28;20622;-76
2021/01/02 04:54:26;;;;;;;35.73;22.13;;;;;;;;;;5057409;28;20219;-76
2021/01/02 04:56:51;;;;;;;34.83;21.77;;;;;;;;;;5064298;28;20658;-76
2021/01/02 04:59:17;;;;;;;32.77;21.30;;;;;;;;;;5059402;28;20572;-76
2021/01/02 05:01:48;;;;;;;32.43;20.57;;;;;;;;;;5059217;28;20662;-76
2021/01/02 05:04:13;;;;;;;31.13;19.63;;;;;;;;;;5058804;28;20195;-76
2021/01/02 05:06:38;;;;;;;36.00;21.33;;;;;;;;;;5061318;28;20161;-76
2021/01/02 05:09:05;;;;;;;33.23;21.23;;;;;;;;;;5064857;28;20709;-76
2021/01/02 05:11:36;;;;;;;38.33;22.73;;;;;;;;;;5062555;28;20188;-76
2021/01/02 05:14:02;;;;;;;34.90;22.33;;;;;;;;;;5060629;28;20281;-76
2021/01/02 05:16:38;;;;;;;36.40;22.43;;;;;;;;;;5069507;28;20284;-76
2021/01/02 05:19:07;;;;;;;38.53;23.10;;;;;;;;;;5065077;28;20230;-76
2021/01/02 05:21:34;;;;;;;38.57;24.00;;;;;;;;;;5068340;28;20594;-76
2021/01/02 05:24:19;;;;;;;38.50;24.20;;;;;;;;;;5059692;28;20280;-76
2021/01/02 05:26:44;;;;;;;42.37;22.60;;;;;;;;;;5066350;28;20196;-76
2021/01/02 05:29:09;;;;;;;39.23;23.93;;;;;;;;;;5060269;28;20558;-76
2021/01/02 05:31:36;;;;;;;38.97;24.20;;;;;;;;;;5065148;28;20177;-76
2021/01/02 05:34:05;;;;;;;46.07;24.57;;;;;;;;;;5070500;28;20628;-76
2021/01/02 05:36:30;;;;;;;44.87;25.40;;;;;;;;;;5066453;28;20173;-76
2021/01/02 05:38:55;;;;;;;41.83;25.30;;;;;;;;;;5062045;28;20754;-76
2021/01/02 05:41:20;;;;;;;41.70;24.80;;;;;;;;;;5064801;28;20273;-77
2021/01/02 05:43:46;;;;;;;40.07;24.37;;;;;;;;;;5059458;28;20569;-76
2021/01/02 05:46:12;;;;;;;39.63;24.73;;;;;;;;;;5067401;28;20272;-76
2021/01/02 05:48:37;;;;;;;40.83;23.53;;;;;;;;;;5049705;28;20945;-76
2021/01/02 05:51:03;;;;;;;40.37;25.20;;;;;;;;;;5050330;28;20192;-76
2021/01/02 05:53:35;;;;;;;41.90;25.20;;;;;;;;;;5051757;28;20226;-76
2021/01/02 05:56:00;;;;;;;42.83;24.90;;;;;;;;;;5048402;28;20192;-77
2021/01/02 05:58:25;;;;;;;40.90;25.43;;;;;;;;;;5048264;28;20483;-76
2021/01/02 06:01:00;;;;;;;39.70;23.80;;;;;;;;;;5046803;28;20252;-77
2021/01/02 06:03:26;;;;;;;41.37;23.80;;;;;;;;;;5066248;28;20567;-75
2021/01/02 06:06:05;;;;;;;39.10;24.00;;;;;;;;;;5065556;28;20189;-76
2021/01/02 06:08:33;;;;;;;41.67;24.30;;;;;;;;;;5067063;28;20173;-76
2021/01/02 06:10:59;;;;;;;40.03;24.10;;;;;;;;;;5067450;28;20526;-76
2021/01/02 06:13:26;;;;;;;48.60;24.77;;;;;;;;;;5060955;28;20576;-76
2021/01/02 06:15:53;;;;;;;40.00;23.07;;;;;;;;;;5066623;28;20614;-75
2021/01/02 06:18:18;;;;;;;43.83;24.77;;;;;;;;;;5063392;28;20205;-75
2021/01/02 06:20:44;;;;;;;41.37;24.13;;;;;;;;;;5070891;28;20248;-75
2021/01/02 06:23:10;;;;;;;43.40;23.70;;;;;;;;;;5069541;28;20205;-75
2021/01/02 06:25:35;;;;;;;41.60;23.47;;;;;;;;;;5081231;28;20217;-75
2021/01/02 06:28:01;;;;;;;44.53;26.07;;;;;;;;;;5077219;28;20177;-75
2021/01/02 06:30:26;;;;;;;45.13;26.00;;;;;;;;;;5083777;28;20209;-76
2021/01/02 06:32:51;;;;;;;40.73;23.67;;;;;;;;;;5082968;28;20211;-75
2021/01/02 06:35:17;;;;;;;48.60;26.00;;;;;;;;;;5077945;28;20161;-75
2021/01/02 06:37:49;;;;;;;47.70;26.20;;;;;;;;;;5083632;28;20185;-75
2021/01/02 06:40:21;;;;;;;48.63;26.90;;;;;;;;;;5083517;28;20205;-75
2021/01/02 06:42:53;;;;;;;43.70;25.03;;;;;;;;;;5078295;28;20673;-75
2021/01/02 06:45:39;;;;;;;42.07;25.53;;;;;;;;;;5078752;28;20181;-75
2021/01/02 06:48:16;;;;;;;51.10;25.37;;;;;;;;;;5061899;28;20176;-75
2021/01/02 06:50:50;;;;;;;45.33;24.47;;;;;;;;;;5069767;28;20200;-75
2021/01/02 06:53:28;;;;;;;46.07;25.90;;;;;;;;;;5067379;28;20276;-75
2021/01/02 06:56:00;;;;;;;48.40;26.27;;;;;;;;;;5062157;28;20560;-75
2021/01/02 06:58:33;;;;;;;44.17;25.37;;;;;;;;;;5066607;28;20216;-75
2021/01/02 07:00:59;;;;;;;44.63;26.33;;;;;;;;;;5066504;28;20263;-75
2021/01/02 07:03:47;;;;;;;44.00;26.63;;;;;;;;;;5072830;28;20303;-75
2021/01/02 07:06:22;;;;;;;47.10;24.50;;;;;;;;;;5066581;28;20181;-75
2021/01/02 07:08:55;;;;;;;49.80;26.37;;;;;;;;;;5068736;28;20188;-75
2021/01/02 07:11:39;;;;;;;50.80;26.30;;;;;;;;;;5064458;28;20196;-75
2021/01/02 07:14:10;;;;;;;54.93;26.50;;;;;;;;;;5062856;28;20215;-75
2021/01/02 07:16:36;;;;;;;51.80;27.00;;;;;;;;;;5064820;28;20182;-75
2021/01/02 07:19:03;;;;;;;56.57;27.87;;;;;;;;;;5067342;28;20197;-75
2021/01/02 07:21:35;;;;;;;55.13;28.13;;;;;;;;;;5065183;28;20196;-75
2021/01/02 07:24:20;;;;;;;58.40;27.17;;;;;;;;;;5068796;28;20769;-75
2021/01/02 07:26:45;;;;;;;49.93;25.73;;;;;;;;;;5059933;28;20181;-75
2021/01/02 07:29:19;;;;;;;60.13;28.80;;;;;;;;;;5067453;28;20650;-75
2021/01/02 07:31:45;;;;;;;52.57;28.10;;;;;;;;;;5067223;28;20180;-76
2021/01/02 07:34:17;;;;;;;56.37;29.70;;;;;;;;;;5068819;28;20215;-76
2021/01/02 07:36:43;;;;;;;54.53;28.67;;;;;;;;;;5068476;28;20430;-76
2021/01/02 07:39:08;;;;;;;53.57;28.63;;;;;;;;;;5069608;28;20200;-76
2021/01/02 07:41:34;;;;;;;53.10;28.73;;;;;;;;;;5069344;28;20169;-76
2021/01/02 07:43:59;;;;;;;58.27;28.37;;;;;;;;;;5069506;28;20723;-76
2021/01/02 07:46:24;;;;;;;54.00;30.33;;;;;;;;;;5058388;28;20228;-76
2021/01/02 07:48:55;;;;;;;56.20;29.30;;;;;;;;;;5069327;28;20259;-75
2021/01/02 07:51:21;;;;;;;56.60;26.43;;;;;;;;;;5063005;28;20200;-77
2021/01/02 07:53:53;;;;;;;64.83;30.37;;;;;;;;;;5071741;28;20686;-76
2021/01/02 07:56:37;;;;;;;63.13;29.80;;;;;;;;;;5072605;28;20181;-76
2021/01/02 07:59:21;;;;;;;57.93;29.30;;;;;;;;;;5064792;28;20323;-76
2021/01/02 08:01:51;;;;;;;61.23;28.60;;;;;;;;;;5068451;28;20286;-76
2021/01/02 08:04:16;;;;;;;66.17;31.23;;;;;;;;;;5072777;28;20211;-76
2021/01/02 08:07:08;;;;;;;59.00;29.37;;;;;;;;;;5071178;28;20657;-76
2021/01/02 08:09:34;;;;;;;57.27;29.70;;;;;;;;;;5071057;28;20189;-75
2021/01/02 08:12:06;;;;;;;55.63;29.07;;;;;;;;;;5072519;28;20196;-76
2021/01/02 08:14:33;;;;;;;61.50;31.63;;;;;;;;;;5065622;28;20217;-76
2021/01/02 08:17:05;;;;;;;60.00;30.57;;;;;;;;;;5071985;28;20243;-76
2021/01/02 08:19:31;;;;;;;55.27;29.77;;;;;;;;;;5068492;28;20558;-76
2021/01/02 08:21:57;;;;;;;60.17;30.53;;;;;;;;;;5069038;28;20176;-76
2021/01/02 08:24:23;;;;;;;56.47;29.47;;;;;;;;;;5062843;28;20210;-76
2021/01/02 08:26:48;;;;;;;56.37;28.57;;;;;;;;;;5060913;28;20549;-76
2021/01/02 08:29:14;;;;;;;57.10;30.13;;;;;;;;;;5068269;28;20192;-76
2021/01/02 08:31:58;;;;;;;63.37;29.00;;;;;;;;;;5067343;28;20207;-76
2021/01/02 08:34:28;;;;;;;63.07;30.90;;;;;;;;;;5068533;28;20228;-76
2021/01/02 08:36:57;;;;;;;64.53;30.07;;;;;;;;;;5069427;28;20184;-76
2021/01/02 08:39:22;;;;;;;56.70;29.13;;;;;;;;;;5066294;28;20205;-76
2021/01/02 08:41:51;;;;;;;70.10;30.00;;;;;;;;;;5063468;28;20599;-76
2021/01/02 08:44:20;;;;;;;62.57;28.67;;;;;;;;;;5070566;28;20567;-75
2021/01/02 08:46:45;;;;;;;56.37;31.47;;;;;;;;;;5071552;28;20548;-76
2021/01/02 08:49:10;;;;;;;57.57;29.23;;;;;;;;;;5071956;28;20188;-75
2021/01/02 08:51:35;;;;;;;53.87;27.83;;;;;;;;;;5071603;28;20177;-76
2021/01/02 08:54:12;;;;;;;58.20;29.07;;;;;;;;;;5071634;28;20204;-76
2021/01/02 08:56:37;;;;;;;54.63;28.63;;;;;;;;;;5070048;28;20169;-76
2021/01/02 08:59:10;;;;;;;52.90;29.37;;;;;;;;;;5069574;28;20551;-76
2021/01/02 09:01:35;;;;;;;58.80;28.47;;;;;;;;;;5067468;28;20387;-76
2021/01/02 09:04:13;;;;;;;52.73;28.97;;;;;;;;;;5067886;28;20716;-76
2021/01/02 09:06:38;;;;;;;54.70;29.77;;;;;;;;;;5067468;28;20177;-76
2021/01/02 09:09:06;;;;;;;63.07;29.50;;;;;;;;;;5070482;28;20184;-75
2021/01/02 09:11:47;;;;;;;63.83;30.50;;;;;;;;;;5071497;28;20181;-76
2021/01/02 09:14:12;;;;;;;49.80;27.20;;;;;;;;;;5070217;28;20358;-76
2021/01/02 09:16:38;;;;;;;52.70;27.13;;;;;;;;;;5071269;28;20256;-76
2021/01/02 09:19:03;;;;;;;54.20;27.33;;;;;;;;;;5065011;28;20696;-76
2021/01/02 09:21:28;;;;;;;56.50;26.67;;;;;;;;;;5071442;28;20161;-76
2021/01/02 09:23:54;;;;;;;52.40;27.23;;;;;;;;;;5071154;28;20636;-75
2021/01/02 09:26:19;;;;;;;53.37;29.13;;;;;;;;;;5060731;28;20573;-76
2021/01/02 09:28:44;;;;;;;46.83;26.90;;;;;;;;;;5063521;28;20222;-76
2021/01/02 09:31:09;;;;;;;54.37;28.30;;;;;;;;;;5065814;28;20185;-75
2021/01/02 09:33:35;;;;;;;56.70;28.50;;;;;;;;;;5069864;28;20573;-76
2021/01/02 09:36:00;;;;;;;70.70;29.73;;;;;;;;;;5067728;28;20198;-76
2021/01/02 09:38:26;;;;;;;55.40;28.27;;;;;;;;;;5070857;28;20563;-76
2021/01/02 09:40:51;;;;;;;49.23;27.23;;;;;;;;;;5069149;28;20195;-75
2021/01/02 09:43:16;;;;;;;46.33;25.33;;;;;;;;;;5067312;28;20192;-75
2021/01/02 09:45:42;;;;;;;46.53;26.60;;;;;;;;;;5070115;28;20165;-76
2021/01/02 09:48:08;;;;;;;56.93;24.70;;;;;;;;;;5069627;28;20172;-76
2021/01/02 09:50:33;;;;;;;45.40;24.20;;;;;;;;;;5066496;28;20204;-76
2021/01/02 09:52:59;;;;;;;48.50;24.67;;;;;;;;;;5069566;28;20200;-76
2021/01/02 09:55:24;;;;;;;43.47;24.70;;;;;;;;;;5065672;28;20551;-76
2021/01/02 09:57:49;;;;;;;41.90;23.17;;;;;;;;;;5065058;28;20180;-76
2021/01/02 10:00:15;;;;;;;50.47;23.87;;;;;;;;;;5068706;28;20201;-76
2021/01/02 10:02:40;;;;;;;45.07;24.00;;;;;;;;;;5064028;28;20174;-76
2021/01/02 10:05:06;;;;;;;41.13;22.60;;;;;;;;;;5068964;28;20219;-76
2021/01/02 10:07:31;;;;;;;50.43;24.93;;;;;;;;;;5067229;28;20275;-76
2021/01/02 10:09:56;;;;;;;59.90;24.43;;;;;;;;;;5063017;28;20173;-76
2021/01/02 10:12:21;;;;;;;53.03;24.50;;;;;;;;;;5069281;28;20183;-76
2021/01/02 10:14:47;;;;;;;72.03;26.23;;;;;;;;;;5071222;28;20262;-76
2021/01/02 10:17:13;;;;;;;47.07;24.13;;;;;;;;;;5059053;28;20268;-76
2021/01/02 10:19:45;;;;;;;54.23;23.10;;;;;;;;;;5056024;28;20208;-76
2021/01/02 10:22:10;;;;;;;57.17;24.37;;;;;;;;;;5058887;28;20219;-76
2021/01/02 10:24:36;;;;;;;54.10;25.90;;;;;;;;;;5067130;28;20204;-76
2021/01/02 10:27:01;;;;;;;59.70;27.40;;;;;;;;;;5065934;28;20177;-76
2021/01/02 10:29:27;;;;;;;55.93;26.83;;;;;;;;;;5070572;28;20176;-76
2021/01/02 10:31:52;;;;;;;51.57;25.33;;;;;;;;;;5074090;28;20191;-76
2021/01/02 10:34:17;;;;;;;39.00;22.57;;;;;;;;;;5065256;28;20200;-76
2021/01/02 10:36:46;;;;;;;38.53;20.53;;;;;;;;;;5064083;28;20216;-76
2021/01/02 10:39:12;;;;;;;42.10;22.93;;;;;;;;;;5067110;28;20216;-76
2021/01/02 10:41:37;;;;;;;45.57;24.07;;;;;;;;;;5063151;28;20181;-76
2021/01/02 10:44:02;;;;;;;41.33;24.40;;;;;;;;;;5069448;28;20196;-76
2021/01/02 10:46:28;;;;;;;42.17;23.50;;;;;;;;;;5063031;28;20666;-76
2021/01/02 10:48:53;;;;;;;40.73;21.23;;;;;;;;;;5072631;28;20271;-76
2021/01/02 10:51:19;;;;;;;45.07;23.70;;;;;;;;;;5068019;28;20654;-76
2021/01/02 10:53:45;;;;;;;37.47;22.90;;;;;;;;;;5063221;28;20251;-76
2021/01/02 10:56:11;;;;;;;42.23;23.10;;;;;;;;;;5070414;28;20839;-76
2021/01/02 10:58:36;;;;;;;52.60;26.27;;;;;;;;;;5088232;28;20288;-77
2021/01/02 11:01:03;;;;;;;59.73;28.87;;;;;;;;;;5073032;28;20207;-76
2021/01/02 11:03:29;;;;;;;62.63;27.20;;;;;;;;;;5063396;28;20277;-76
2021/01/02 11:05:54;;;;;;;60.03;29.60;;;;;;;;;;5069574;28;20657;-76
2021/01/02 11:08:19;;;;;;;49.03;26.27;;;;;;;;;;5062113;28;20180;-75
2021/01/02 11:10:44;;;;;;;55.63;27.37;;;;;;;;;;5066106;28;20676;-76
2021/01/02 11:13:10;;;;;;;51.57;28.53;;;;;;;;;;5068091;28;20219;-76
2021/01/02 11:15:35;;;;;;;51.40;28.47;;;;;;;;;;5068038;28;20191;-76
2021/01/02 11:18:00;;;;;;;47.90;26.07;;;;;;;;;;5070495;28;20179;-76
2021/01/02 11:20:25;;;;;;;46.27;25.03;;;;;;;;;;5069952;28;20201;-76
2021/01/02 11:22:50;;;;;;;41.90;23.67;;;;;;;;;;5074197;28;20189;-76
2021/01/02 11:33:12;;;;;;;41.53;23.77;;;;;;;;;;5339468;22;20237;-69
2021/01/02 11:35:37;;;;;;;51.33;25.83;;;;;;;;;;5028675;28;20248;-69
2021/01/02 11:38:03;;;;;;;46.97;25.33;;;;;;;;;;5013049;28;20650;-69
2021/01/02 11:40:28;;;;;;;42.73;22.97;;;;;;;;;;5020131;28;20210;-69
2021/01/02 11:42:55;;;;;;;44.67;22.85;;;;;;;;;;5018287;28;20285;-69
2021/01/02 11:45:21;;;;;;;39.90;22.57;;;;;;;;;;5030018;22;20368;-69
2021/01/02 11:47:46;;;;;;;39.47;21.23;;;;;;;;;;5026977;28;20213;-69
2021/01/02 11:50:12;;;;;;;38.70;21.70;;;;;;;;;;5017115;28;20252;-70
2021/01/02 11:52:37;;;;;;;38.17;21.13;;;;;;;;;;5028824;28;20262;-69
2021/01/02 11:55:03;;;;;;;36.83;20.57;;;;;;;;;;5023348;28;20210;-70
2021/01/02 11:57:28;;;;;;;36.57;20.27;;;;;;;;;;5013595;28;20187;-70
2021/01/02 11:59:54;;;;;;;41.83;23.30;;;;;;;;;;5015040;28;20195;-71
2021/01/02 12:02:19;;;;;;;40.97;22.73;;;;;;;;;;5011399;28;20175;-70
2021/01/02 12:04:44;;;;;;;40.17;23.30;;;;;;;;;;5022728;28;20219;-70
2021/01/02 12:07:10;;;;;;;44.97;23.83;;;;;;;;;;5009409;28;20546;-70
2021/01/02 12:09:35;;;;;;;42.73;23.30;;;;;;;;;;5024175;28;20647;-70
2021/01/02 12:12:00;;;;;;;43.83;24.30;;;;;;;;;;5021567;28;20252;-70
2021/01/02 12:14:27;;;;;;;46.10;23.63;;;;;;;;;;5008180;28;20194;-70
2021/01/02 12:16:53;;;;;;;42.83;22.93;;;;;;;;;;5017446;28;20195;-70
2021/01/02 12:19:22;;;;;;;46.37;25.03;;;;;;;;;;5018602;28;20343;-70
2021/01/02 12:21:48;;;;;;;42.43;23.17;;;;;;;;;;5012803;28;20179;-70
2021/01/02 12:24:16;;;;;;;37.20;22.37;;;;;;;;;;5009809;28;20179;-70
2021/01/02 12:26:42;;;;;;;40.07;22.77;;;;;;;;;;4998349;28;20197;-71
2021/01/02 12:29:07;;;;;;;41.50;23.50;;;;;;;;;;5014576;28;20186;-70
2021/01/02 12:31:32;;;;;;;37.30;21.67;;;;;;;;;;4997445;28;20182;-70
2021/01/02 12:33:57;;;;;;;40.70;22.20;;;;;;;;;;5015610;28;20551;-70
2021/01/02 12:36:30;;;;;;;38.47;22.10;;;;;;;;;;5013918;28;20244;-72
2021/01/02 12:38:55;;;;;;;40.47;21.77;;;;;;;;;;5011184;28;20234;-70
2021/01/02 12:41:20;;;;;;;42.37;23.40;;;;;;;;;;5010630;28;20206;-70
2021/01/02 12:43:46;;;;;;;41.50;24.03;;;;;;;;;;5018543;28;20171;-70
2021/01/02 12:46:13;;;;;;;40.47;24.40;;;;;;;;;;4999479;28;20705;-71
2021/01/02 12:48:38;;;;;;;51.87;26.03;;;;;;;;;;5017095;28;20266;-70
2021/01/02 12:51:04;;;;;;;49.13;25.67;;;;;;;;;;5012523;28;20262;-70
2021/01/02 12:53:29;;;;;;;46.60;24.93;;;;;;;;;;4999577;28;20265;-69
2021/01/02 12:55:54;;;;;;;43.20;23.97;;;;;;;;;;5012402;28;20819;-70
2021/01/02 12:58:19;;;;;;;47.23;24.30;;;;;;;;;;5017267;28;20241;-70
2021/01/02 13:00:45;;;;;;;38.13;22.87;;;;;;;;;;5018208;28;20218;-71
2021/01/02 13:03:11;;;;;;;39.00;22.00;;;;;;;;;;4995818;28;20198;-71
2021/01/02 13:05:36;;;;;;;43.97;23.23;;;;;;;;;;4992008;28;20206;-70
2021/01/02 13:08:01;;;;;;;40.97;23.03;;;;;;;;;;4993182;28;20228;-72
2021/01/02 13:10:26;;;;;;;40.57;22.83;;;;;;;;;;5010239;28;20545;-70
2021/01/02 13:12:51;;;;;;;43.80;22.47;;;;;;;;;;5008328;28;20454;-70
2021/01/02 13:15:17;;;;;;;39.93;24.73;;;;;;;;;;5012417;28;20667;-69
2021/01/02 13:17:42;;;;;;;41.93;23.90;;;;;;;;;;4994767;28;20717;-70
2021/01/02 13:20:07;;;;;;;44.47;23.47;;;;;;;;;;5014702;28;20210;-70
2021/01/02 13:22:33;;;;;;;45.47;22.17;;;;;;;;;;4993827;28;20198;-70
2021/01/02 13:25:00;;;;;;;36.17;20.97;;;;;;;;;;5010718;28;20257;-71
2021/01/02 13:27:25;;;;;;;41.17;22.23;;;;;;;;;;4996883;28;20237;-69
2021/01/02 13:29:53;;;;;;;40.07;23.03;;;;;;;;;;5015015;28;20198;-70
2021/01/02 13:32:19;;;;;;;39.77;22.53;;;;;;;;;;5011819;28;20713;-70
2021/01/02 13:34:44;;;;;;;39.63;22.63;;;;;;;;;;4993487;28;20186;-69
2021/01/02 13:37:12;;;;;;;34.07;21.10;;;;;;;;;;4997622;28;20192;-71
2021/01/02 13:39:37;;;;;;;35.87;20.83;;;;;;;;;;5009643;28;20199;-72
2021/01/02 13:42:02;;;;;;;38.27;23.90;;;;;;;;;;5021303;28;20186;-71
2021/01/02 13:44:28;;;;;;;35.43;21.90;;;;;;;;;;5012718;28;20329;-69
2021/01/02 13:46:57;;;;;;;37.30;21.73;;;;;;;;;;5009188;28;20215;-70
2021/01/02 13:49:22;;;;;;;36.63;22.30;;;;;;;;;;5013344;28;20205;-70
2021/01/02 13:51:47;;;;;;;36.73;20.60;;;;;;;;;;5030041;28;20182;-70
2021/01/02 13:54:13;;;;;;;47.03;22.87;;;;;;;;;;4997483;28;20610;-70
2021/01/02 13:56:39;;;;;;;45.00;23.20;;;;;;;;;;5006780;28;20215;-70
2021/01/02 13:59:04;;;;;;;39.97;23.77;;;;;;;;;;5024990;28;20304;-70
2021/01/02 14:01:38;;;;;;;36.50;21.87;;;;;;;;;;5011848;28;20190;-70
2021/01/02 14:04:03;;;;;;;38.40;23.07;;;;;;;;;;5010720;28;20192;-70
2021/01/02 14:06:28;;;;;;;37.10;22.10;;;;;;;;;;5007238;28;20575;-70
2021/01/02 14:08:53;;;;;;;41.30;23.57;;;;;;;;;;5016134;28;20654;-70
2021/01/02 14:11:19;;;;;;;40.47;23.30;;;;;;;;;;5012111;28;20179;-70
2021/01/02 14:13:46;;;;;;;40.00;22.13;;;;;;;;;;5013507;28;20214;-71
2021/01/02 14:16:12;;;;;;;38.27;21.70;;;;;;;;;;4994942;28;20202;-70
2021/01/02 14:18:37;;;;;;;39.17;22.63;;;;;;;;;;5010093;28;20203;-70
2021/01/02 14:21:03;;;;;;;38.53;23.48;;;;;;;;;;5010117;28;20236;-69
2021/01/02 14:23:28;;;;;;;44.17;22.93;;;;;;;;;;5012387;28;20611;-70
2021/01/02 14:25:53;;;;;;;37.60;21.57;;;;;;;;;;4996037;28;20202;-70